createdAt,value
2022-11-17T00:04:43.471Z,972.4
2022-11-17T00:10:02.133Z,972.4
2022-11-17T00:15:21.455Z,972.2
2022-11-17T00:20:40.402Z,972.1
2022-11-17T00:26:00.163Z,971.9
2022-11-17T00:31:19.815Z,971.9
2022-11-17T00:36:39.139Z,971.8
2022-11-17T00:41:58.115Z,971.7
2022-11-17T00:47:17.608Z,971.7
2022-11-17T00:52:37.172Z,971.7
2022-11-17T00:57:56.805Z,971.6
2022-11-17T01:03:15.651Z,971.6
2022-11-17T01:08:34.860Z,971.4
2022-11-17T01:13:53.916Z,971.3
2022-11-17T01:19:13.259Z,971.3
2022-11-17T01:24:32.762Z,971.4
2022-11-17T01:29:52.568Z,971.2
2022-11-17T01:35:11.651Z,971
2022-11-17T01:40:30.757Z,971
2022-11-17T01:45:49.891Z,970.8
2022-11-17T01:51:09.438Z,970.7
2022-11-17T01:56:28.861Z,970.8
2022-11-17T02:01:48.255Z,970.8
2022-11-17T02:07:07.398Z,970.6
2022-11-17T02:12:27.124Z,970.5
2022-11-17T02:17:46.764Z,970.5
2022-11-17T02:23:05.841Z,970.4
2022-11-17T02:28:24.875Z,970.3
2022-11-17T02:33:43.707Z,970.3
2022-11-17T02:39:03.410Z,970.1
2022-11-17T02:44:22.301Z,970
2022-11-17T02:49:41.793Z,969.9
2022-11-17T02:55:00.763Z,969.8
2022-11-17T03:00:19.750Z,969.8
2022-11-17T03:05:39.372Z,969.7
2022-11-17T03:10:57.639Z,969.7
2022-11-17T03:16:17.009Z,969.7
2022-11-17T03:21:37.542Z,969.6
2022-11-17T03:26:55.648Z,969.5
2022-11-17T03:32:15.333Z,969.3
2022-11-17T03:37:35.299Z,969.1
2022-11-17T03:42:54.338Z,969
2022-11-17T03:48:14.083Z,968.9
2022-11-17T03:53:33.680Z,968.9
2022-11-17T03:58:52.871Z,969
2022-11-17T04:04:12.394Z,969.1
2022-11-17T04:09:31.275Z,969.2
2022-11-17T04:09:56.335Z,969.2
2022-11-17T04:15:15.590Z,969.3
2022-11-17T04:20:34.462Z,969.4
2022-11-17T04:25:53.927Z,969.1
2022-11-17T04:31:13.429Z,969.1
2022-11-17T04:36:32.657Z,968.9
2022-11-17T04:41:51.582Z,968.9
2022-11-17T04:47:11.314Z,969
2022-11-17T04:52:30.873Z,968.8
2022-11-17T04:57:50.281Z,969.2
2022-11-17T05:03:10.027Z,969.4
2022-11-17T05:08:28.994Z,969.2
2022-11-17T05:13:48.139Z,968.9
2022-11-17T05:19:07.020Z,969
2022-11-17T05:24:26.386Z,968.8
2022-11-17T05:29:46.064Z,969
2022-11-17T05:35:05.111Z,969
2022-11-17T05:40:24.109Z,968.9
2022-11-17T05:45:42.863Z,968.9
2022-11-17T05:51:03.091Z,968.9
2022-11-17T05:56:22.199Z,968.9
2022-11-17T06:01:40.369Z,968.9
2022-11-17T06:07:00.048Z,968.8
2022-11-17T06:12:19.477Z,968.8
2022-11-17T06:17:39.073Z,968.7
2022-11-17T06:22:58.370Z,968.7
2022-11-17T06:28:17.952Z,968.7
2022-11-17T06:33:36.679Z,968.8
2022-11-17T06:38:55.500Z,968.8
2022-11-17T06:44:15.110Z,969
2022-11-17T06:49:34.351Z,969
2022-11-17T06:54:53.317Z,969.1
2022-11-17T07:00:12.333Z,969
2022-11-17T07:05:31.691Z,969.1
2022-11-17T07:10:51.416Z,969.3
2022-11-17T07:16:10.272Z,969.3
2022-11-17T07:21:29.398Z,969.2
2022-11-17T07:26:48.309Z,969
2022-11-17T07:32:08.661Z,968.9
2022-11-17T07:37:28.182Z,969
2022-11-17T07:42:47.330Z,968.9
2022-11-17T07:48:06.593Z,968.8
2022-11-17T07:53:25.587Z,968.8
2022-11-17T07:58:44.366Z,968.8
2022-11-17T08:04:03.447Z,968.8
2022-11-17T08:09:21.712Z,968.8
2022-11-17T08:14:41.334Z,968.8
2022-11-17T08:20:00.459Z,968.8
2022-11-17T08:25:19.971Z,968.9
2022-11-17T08:30:39.669Z,968.8
2022-11-17T08:35:59.149Z,968.8
2022-11-17T08:41:17.845Z,968.8
2022-11-17T08:46:37.254Z,968.9
2022-11-17T08:51:56.538Z,968.9
2022-11-17T08:57:15.755Z,969
2022-11-17T09:02:34.505Z,968.8
2022-11-17T09:07:54.325Z,968.9
2022-11-17T09:13:17.474Z,968.9
2022-11-17T09:18:32.355Z,969.1
2022-11-17T09:23:51.935Z,969.1
2022-11-17T09:29:11.355Z,969.1
2022-11-17T09:34:30.108Z,969.1
2022-11-17T09:39:48.865Z,969
2022-11-17T09:45:08.149Z,969
2022-11-17T09:50:26.835Z,969
2022-11-17T09:55:45.897Z,968.9
2022-11-17T10:01:05.292Z,969
2022-11-17T10:06:24.145Z,969
2022-11-17T10:11:43.709Z,969.1
2022-11-17T10:17:02.933Z,969.1
2022-11-17T10:22:22.024Z,969.2
2022-11-17T10:27:41.559Z,969.2
2022-11-17T10:33:00.574Z,969.2
2022-11-17T10:38:20.551Z,969
2022-11-17T10:43:40.090Z,969
2022-11-17T10:48:58.912Z,969
2022-11-17T10:54:17.691Z,968.9
2022-11-17T10:59:35.998Z,968.9
2022-11-17T11:04:55.246Z,968.9
2022-11-17T11:10:14.575Z,968.9
2022-11-17T11:15:34.249Z,968.9
2022-11-17T11:20:53.352Z,969
2022-11-17T11:26:13.002Z,969.4
2022-11-17T11:31:31.095Z,969.5
2022-11-17T11:36:50.273Z,969.5
2022-11-17T11:42:09.225Z,969.4
2022-11-17T11:47:28.694Z,969.4
2022-11-17T11:52:47.881Z,969.3
2022-11-17T11:58:07.520Z,969.3
2022-11-17T12:03:34.256Z,969.6
2022-11-17T12:08:45.647Z,969.9
2022-11-17T12:14:05.075Z,969.7
2022-11-17T12:19:24.135Z,969.7
2022-11-17T12:24:43.795Z,969.7
2022-11-17T12:30:02.618Z,969.8
2022-11-17T12:35:22.516Z,969.8
2022-11-17T12:40:41.801Z,969.7
2022-11-17T12:46:00.916Z,969.6
2022-11-17T12:51:19.951Z,969.6
2022-11-17T12:56:39.471Z,969.7
2022-11-17T13:01:58.759Z,969.6
2022-11-17T13:07:18.291Z,969.7
2022-11-17T13:12:36.994Z,969.7
2022-11-17T13:17:56.581Z,969.7
2022-11-17T13:23:15.498Z,969.6
2022-11-17T13:28:34.631Z,969.6
2022-11-17T13:33:54.449Z,969.7
2022-11-17T13:39:12.969Z,969.8
2022-11-17T13:44:31.877Z,969.7
2022-11-17T13:49:51.782Z,969.8
2022-11-17T13:55:10.625Z,969.8
2022-11-17T14:00:30.086Z,969.9
2022-11-17T14:05:48.814Z,970
2022-11-17T14:11:18.488Z,970.1
2022-11-17T14:16:27.291Z,970.1
2022-11-17T14:21:46.226Z,970.1
2022-11-17T14:27:05.077Z,970.1
2022-11-17T14:32:24.158Z,970.1
2022-11-17T14:37:52.163Z,970.2
2022-11-17T14:43:02.007Z,970.2
2022-11-17T14:48:28.839Z,970.3
2022-11-17T14:53:41.987Z,970.4
2022-11-17T14:58:59.677Z,970.2
2022-11-17T15:04:48.686Z,970.3
2022-11-17T15:09:38.341Z,970.4
2022-11-17T15:14:57.783Z,970.4
2022-11-17T15:20:17.040Z,970.6
2022-11-17T15:25:35.856Z,970.7
2022-11-17T15:31:04.041Z,970.6
2022-11-17T15:36:14.238Z,970.6
2022-11-17T15:41:33.761Z,970.4
2022-11-17T15:46:53.139Z,970.4
2022-11-17T15:52:12.100Z,970.4
2022-11-17T15:57:31.827Z,970.4
2022-11-17T16:02:53.207Z,970.3
2022-11-17T16:08:09.988Z,970.4
2022-11-17T16:13:28.964Z,970.5
2022-11-17T16:18:48.089Z,970.4
2022-11-17T16:24:07.032Z,970.3
2022-11-17T16:29:26.431Z,970.3
2022-11-17T16:34:53.513Z,970.2
2022-11-17T16:40:05.093Z,970.1
2022-11-17T16:45:24.807Z,970.3
2022-11-17T16:50:44.000Z,970.3
2022-11-17T16:56:03.530Z,970.2
2022-11-17T17:01:23.077Z,969.9
2022-11-17T17:06:42.803Z,969.9
2022-11-17T17:12:02.069Z,969.7
2022-11-17T17:17:21.033Z,969.8
2022-11-17T17:22:39.729Z,969.9
2022-11-17T17:27:58.783Z,970
2022-11-17T17:33:17.828Z,970.2
2022-11-17T17:38:37.442Z,970.9
2022-11-17T17:43:57.211Z,970.9
2022-11-17T17:49:17.127Z,970.8
2022-11-17T17:54:35.846Z,970.8
2022-11-17T17:59:55.050Z,970.5
2022-11-17T18:05:14.494Z,970.5
2022-11-17T18:10:33.637Z,970.4
2022-11-17T18:15:52.878Z,970.3
2022-11-17T18:21:12.541Z,970.4
2022-11-17T18:26:31.874Z,970.4
2022-11-17T18:31:50.919Z,970.6
2022-11-17T18:37:10.492Z,970.6
2022-11-17T18:42:37.802Z,970.7
2022-11-17T18:47:48.913Z,970.6
2022-11-17T18:53:08.210Z,970.5
2022-11-17T18:58:27.221Z,970.5
2022-11-17T19:03:46.131Z,970.5
2022-11-17T19:09:05.489Z,970.6
2022-11-17T19:14:24.736Z,970.5
2022-11-17T19:19:43.571Z,970.5
2022-11-17T19:25:03.264Z,970.6
2022-11-17T19:30:22.881Z,970.6
2022-11-17T19:35:42.336Z,970.6
2022-11-17T19:41:01.654Z,970.5
2022-11-17T19:46:20.914Z,970.5
2022-11-17T19:51:49.447Z,970.5
2022-11-17T19:57:07.870Z,970.5
2022-11-17T20:02:19.500Z,970.4
2022-11-17T20:07:38.359Z,970.6
2022-11-17T20:12:57.972Z,970.8
2022-11-17T20:18:17.222Z,970.7
2022-11-17T20:23:36.212Z,970.7
2022-11-17T20:28:55.150Z,970.8
2022-11-17T20:34:14.308Z,970.8
2022-11-17T20:39:33.225Z,970.9
2022-11-17T20:44:52.604Z,970.7
2022-11-17T20:50:11.945Z,970.8
2022-11-17T20:55:30.864Z,970.9
2022-11-17T21:00:49.958Z,971.1
2022-11-17T21:06:09.845Z,971.2
2022-11-17T21:11:29.893Z,971
2022-11-17T21:16:48.669Z,971
2022-11-17T21:22:08.993Z,971.1
2022-11-17T21:27:26.791Z,971.1
2022-11-17T21:32:45.726Z,971.2
2022-11-17T21:38:04.518Z,971
2022-11-17T21:43:24.371Z,971
2022-11-17T21:48:43.541Z,971.1
2022-11-17T21:54:02.615Z,971.2
2022-11-17T21:54:27.136Z,971.2
2022-11-17T21:59:46.216Z,971.2
2022-11-17T22:05:05.015Z,971.2
2022-11-17T22:10:24.319Z,971.2
2022-11-17T22:15:43.587Z,971.2
2022-11-17T22:21:02.648Z,971.1
2022-11-17T22:26:21.708Z,971.1
2022-11-17T22:31:41.290Z,971.4
2022-11-17T22:37:00.308Z,971.4
2022-11-17T22:42:19.139Z,971.4
2022-11-17T22:47:37.950Z,971.4
2022-11-17T22:52:56.831Z,971.4
2022-11-17T22:58:16.546Z,971.4
2022-11-17T23:03:36.366Z,971.4
2022-11-17T23:09:04.528Z,971.5
2022-11-17T23:14:14.735Z,971.5
2022-11-17T23:19:34.355Z,971.5
2022-11-17T23:24:53.809Z,971.5
2022-11-17T23:30:12.979Z,971.4
2022-11-17T23:35:40.087Z,971.4
2022-11-17T23:40:51.490Z,971.3
2022-11-17T23:46:10.607Z,971.3
2022-11-17T23:51:29.157Z,971.3
2022-11-17T23:56:48.184Z,971.3
